Babbitt, MN

2:36 PM CDT on July 22, 2014 (GMT -0500)
Ely Municipal (KELO) Elev 1453 ft | 47.82 °N, 91.83 °W | Change Station

Current weather conditions updated 3 minutes ago

Partly Cloudy
Partly Cloudy
70 °F
Feels Like 70 °F
N
13
Wind Variable Wind from NNW
Gusts 24 mph

Today is forecast to be Much Cooler than yesterday.

Today
High -- | Low -- °F
--% Chance of Precip.
Yesterday
High -- | Low -- °F
Precip. -- in
5:32 AM 8:55 PM
Waning Crescent, 15% visible
Pressure 30.02 in
Visibility 10.0 miles
Clouds Scattered Clouds 3000 ft
Scattered Clouds 3900 ft
Scattered Clouds 4900 ft
Dew Point 55 °F
Humidity 60%
Rainfall 0.55 in
Snow Depth Not available.
UV 8 out of 12
Pollen .60 out of 12
Air Quality Not available.
Flu Activity Sporadic
METAR KELO 221933Z AUTO 34011G21KT 10SM SCT030 SCT039 SCT049 21/13 A3002 RMK AO2

More Conditions Fewer Conditions

Pressure 30.02 in
Visibility 10.0 miles
Clouds Scattered Clouds 3000 ft
Scattered Clouds 3900 ft
Scattered Clouds 4900 ft
Dew Point 55 °F
Humidity 60%
Rainfall 0.55 in
Snow Depth Not available.
UV 8 out of 12
Pollen .60 out of 12
Air Quality Not available.
Flu Activity Sporadic
METAR KELO 221933Z AUTO 34011G21KT 10SM SCT030 SCT039 SCT049 21/13 A3002 RMK AO2

More Conditions Fewer Conditions

10-Day Weather Forecast

Almanac

Astronomy

Jul. 22, 2014 Rise Set
Actual Time 5:32 AM CDT 8:55 PM CDT
Civil Twilight 4:54 AM CDT 9:32 PM CDT
Nautical Twilight 4:05 AM CDT 10:22 PM CDT
Astronomical Twilight 3:00 AM CDT 11:26 PM CDT
Moon 2:09 AM CDT 5:31 PM CDT
Length of Visible Light 16h 37m
Length of Day
15h 22m
Tomorrow will be 2m 16s shorter.
Waning Crescent, 15% of the Moon is Illuminated
Today
Waning Crescent
Jul 26
New
Aug 3
First Quarter
Aug 10
Full
Aug 17
Last Quarter

Today's Extremes

State Highs State Lows

Community

WunderPhotos

Upload Photos

1,736,341 photos uploaded!

Nearby

Snow Depth

Station Depth Elevation
No new snow has been reported.

Earthquake Activity

City Distance Mag. Time & Date
No recent earthquake activity has been reported nearby.
Minimum magnitude displayed is 2.5.

Coastal Water Temperatures

Place Temperature
No Stations Reporting

Nearby Weather Stations

Station Location Temp. Heat Index Dew Point Humidity Wind Precip. Elev Updated Type
RAWS ELY MN, Ely, MN 71 °F 75 °F 59 °F 66% NNW  at  13 mph 0.00 in / hr 1455 ft 2:04 PM CDT MADIS
Near Bearhead Lake State Park - Tower, S, Ely, MN 74.3 °F 77 °F 61 °F 63% NW  at  6.9 mph 0.00 in / hr 1575 ft 2:36 PM CDT Rapid Fire

Show More Stations Show Fewer Stations